sensor_id;sensor_type;location;lat;lon;timestamp;P1;durP1;ratioP1;P2;durP2;ratioP2
35418;SDS011;21525;41.240;16.500;2022-09-30T00:01:46;4.75;;;1.58;;
35418;SDS011;21525;41.240;16.500;2022-09-30T00:04:16;7.22;;;1.45;;
35418;SDS011;21525;41.240;16.500;2022-09-30T00:06:47;3.83;;;1.45;;
35418;SDS011;21525;41.240;16.500;2022-09-30T00:09:13;5.28;;;1.52;;
35418;SDS011;21525;41.240;16.500;2022-09-30T00:11:40;5.65;;;1.80;;
35418;SDS011;21525;41.240;16.500;2022-09-30T00:14:07;4.35;;;1.60;;
35418;SDS011;21525;41.240;16.500;2022-09-30T00:16:38;4.50;;;1.42;;
35418;SDS011;21525;41.240;16.500;2022-09-30T00:19:03;2.63;;;1.17;;
35418;SDS011;21525;41.240;16.500;2022-09-30T00:21:30;3.85;;;1.35;;
35418;SDS011;21525;41.240;16.500;2022-09-30T00:24:00;5.70;;;1.52;;
35418;SDS011;21525;41.240;16.500;2022-09-30T00:26:27;7.65;;;1.95;;
35418;SDS011;21525;41.240;16.500;2022-09-30T00:28:55;4.22;;;1.77;;
35418;SDS011;21525;41.240;16.500;2022-09-30T00:31:23;6.05;;;1.30;;
35418;SDS011;21525;41.240;16.500;2022-09-30T00:33:52;5.47;;;1.27;;
35418;SDS011;21525;41.240;16.500;2022-09-30T00:36:45;5.80;;;1.08;;
35418;SDS011;21525;41.240;16.500;2022-09-30T00:39:19;6.03;;;1.10;;
35418;SDS011;21525;41.240;16.500;2022-09-30T00:41:54;5.75;;;1.23;;
35418;SDS011;21525;41.240;16.500;2022-09-30T00:47:35;4.43;;;1.02;;
35418;SDS011;21525;41.240;16.500;2022-09-30T00:50:10;3.72;;;1.52;;
35418;SDS011;21525;41.240;16.500;2022-09-30T00:58:06;3.90;;;1.45;;
35418;SDS011;21525;41.240;16.500;2022-09-30T01:00:34;8.18;;;1.50;;
35418;SDS011;21525;41.240;16.500;2022-09-30T01:03:01;2.83;;;1.00;;
35418;SDS011;21525;41.240;16.500;2022-09-30T01:05:28;3.30;;;1.05;;
35418;SDS011;21525;41.240;16.500;2022-09-30T01:07:57;4.38;;;1.15;;
35418;SDS011;21525;41.240;16.500;2022-09-30T01:10:26;3.53;;;0.77;;
35418;SDS011;21525;41.240;16.500;2022-09-30T01:12:52;2.58;;;1.20;;
35418;SDS011;21525;41.240;16.500;2022-09-30T01:15:19;7.80;;;1.10;;
35418;SDS011;21525;41.240;16.500;2022-09-30T01:17:54;4.80;;;1.08;;
35418;SDS011;21525;41.240;16.500;2022-09-30T01:20:40;4.43;;;1.25;;
35418;SDS011;21525;41.240;16.500;2022-09-30T01:26:17;3.97;;;1.25;;
35418;SDS011;21525;41.240;16.500;2022-09-30T01:42:22;5.00;;;1.40;;
35418;SDS011;21525;41.240;16.500;2022-09-30T01:47:47;4.30;;;1.33;;
35418;SDS011;21525;41.240;16.500;2022-09-30T01:53:03;4.95;;;1.27;;
35418;SDS011;21525;41.240;16.500;2022-09-30T02:01:32;3.75;;;1.30;;
35418;SDS011;21525;41.240;16.500;2022-09-30T02:04:11;5.30;;;1.40;;
35418;SDS011;21525;41.240;16.500;2022-09-30T02:06:45;3.45;;;1.10;;
35418;SDS011;21525;41.240;16.500;2022-09-30T02:09:21;4.15;;;1.27;;
35418;SDS011;21525;41.240;16.500;2022-09-30T02:12:02;3.67;;;1.30;;
35418;SDS011;21525;41.240;16.500;2022-09-30T02:18:03;4.85;;;1.10;;
35418;SDS011;21525;41.240;16.500;2022-09-30T02:20:25;5.38;;;1.77;;
35418;SDS011;21525;41.240;16.500;2022-09-30T02:22:56;5.10;;;1.40;;
35418;SDS011;21525;41.240;16.500;2022-09-30T02:25:29;6.53;;;1.52;;
35418;SDS011;21525;41.240;16.500;2022-09-30T02:28:02;5.20;;;1.55;;
35418;SDS011;21525;41.240;16.500;2022-09-30T02:30:33;4.32;;;1.25;;
35418;SDS011;21525;41.240;16.500;2022-09-30T02:39:40;4.55;;;1.55;;
35418;SDS011;21525;41.240;16.500;2022-09-30T02:42:13;5.78;;;1.60;;
35418;SDS011;21525;41.240;16.500;2022-09-30T02:44:46;4.93;;;1.80;;
35418;SDS011;21525;41.240;16.500;2022-09-30T02:58:25;4.88;;;1.38;;
35418;SDS011;21525;41.240;16.500;2022-09-30T03:00:52;9.15;;;1.65;;
35418;SDS011;21525;41.240;16.500;2022-09-30T03:03:31;4.47;;;1.50;;
35418;SDS011;21525;41.240;16.500;2022-09-30T03:06:10;4.95;;;1.50;;
35418;SDS011;21525;41.240;16.500;2022-09-30T03:08:37;5.18;;;1.60;;
35418;SDS011;21525;41.240;16.500;2022-09-30T03:11:03;5.90;;;1.15;;
35418;SDS011;21525;41.240;16.500;2022-09-30T03:16:57;6.10;;;1.70;;
35418;SDS011;21525;41.240;16.500;2022-09-30T03:25:06;7.75;;;2.63;;
35418;SDS011;21525;41.240;16.500;2022-09-30T03:30:27;4.60;;;1.42;;
35418;SDS011;21525;41.240;16.500;2022-09-30T03:38:31;7.15;;;2.30;;
35418;SDS011;21525;41.240;16.500;2022-09-30T03:41:10;5.13;;;1.73;;
35418;SDS011;21525;41.240;16.500;2022-09-30T03:44:09;5.38;;;1.92;;
35418;SDS011;21525;41.240;16.500;2022-09-30T03:49:09;5.63;;;1.50;;
35418;SDS011;21525;41.240;16.500;2022-09-30T03:51:40;6.35;;;2.20;;
35418;SDS011;21525;41.240;16.500;2022-09-30T03:54:08;4.28;;;1.75;;
35418;SDS011;21525;41.240;16.500;2022-09-30T03:56:36;7.20;;;2.22;;
35418;SDS011;21525;41.240;16.500;2022-09-30T03:59:10;7.60;;;2.00;;
35418;SDS011;21525;41.240;16.500;2022-09-30T04:01:37;4.75;;;1.70;;
35418;SDS011;21525;41.240;16.500;2022-09-30T04:04:04;5.78;;;1.70;;
35418;SDS011;21525;41.240;16.500;2022-09-30T04:06:30;5.88;;;1.83;;
35418;SDS011;21525;41.240;16.500;2022-09-30T04:08:56;5.10;;;1.80;;
35418;SDS011;21525;41.240;16.500;2022-09-30T04:11:22;8.10;;;1.95;;
35418;SDS011;21525;41.240;16.500;2022-09-30T04:13:47;6.32;;;1.98;;
35418;SDS011;21525;41.240;16.500;2022-09-30T04:16:13;5.57;;;1.60;;
35418;SDS011;21525;41.240;16.500;2022-09-30T04:18:39;8.05;;;2.40;;
35418;SDS011;21525;41.240;16.500;2022-09-30T04:21:08;5.63;;;2.22;;
35418;SDS011;21525;41.240;16.500;2022-09-30T04:23:37;6.60;;;1.92;;
35418;SDS011;21525;41.240;16.500;2022-09-30T04:26:05;9.43;;;1.98;;
35418;SDS011;21525;41.240;16.500;2022-09-30T04:28:33;4.37;;;1.77;;
35418;SDS011;21525;41.240;16.500;2022-09-30T04:31:03;7.03;;;1.83;;
35418;SDS011;21525;41.240;16.500;2022-09-30T04:33:30;4.95;;;1.92;;
35418;SDS011;21525;41.240;16.500;2022-09-30T04:35:57;8.48;;;2.03;;
35418;SDS011;21525;41.240;16.500;2022-09-30T04:38:24;6.65;;;2.28;;
35418;SDS011;21525;41.240;16.500;2022-09-30T04:40:51;9.38;;;2.05;;
35418;SDS011;21525;41.240;16.500;2022-09-30T04:43:19;5.95;;;1.83;;
35418;SDS011;21525;41.240;16.500;2022-09-30T04:45:46;6.93;;;1.92;;
35418;SDS011;21525;41.240;16.500;2022-09-30T04:48:13;5.35;;;2.00;;
35418;SDS011;21525;41.240;16.500;2022-09-30T04:50:40;6.07;;;2.58;;
35418;SDS011;21525;41.240;16.500;2022-09-30T04:53:07;6.07;;;2.25;;
35418;SDS011;21525;41.240;16.500;2022-09-30T04:55:33;6.68;;;2.20;;
35418;SDS011;21525;41.240;16.500;2022-09-30T04:57:59;8.27;;;3.00;;
35418;SDS011;21525;41.240;16.500;2022-09-30T05:00:25;7.90;;;2.60;;
35418;SDS011;21525;41.240;16.500;2022-09-30T05:02:51;8.52;;;2.08;;
35418;SDS011;21525;41.240;16.500;2022-09-30T05:05:17;7.25;;;2.28;;
35418;SDS011;21525;41.240;16.500;2022-09-30T05:07:44;8.18;;;2.28;;
35418;SDS011;21525;41.240;16.500;2022-09-30T05:10:10;7.20;;;2.55;;
35418;SDS011;21525;41.240;16.500;2022-09-30T05:12:36;9.55;;;2.55;;
35418;SDS011;21525;41.240;16.500;2022-09-30T05:15:03;11.55;;;2.97;;
35418;SDS011;21525;41.240;16.500;2022-09-30T05:17:30;11.23;;;3.05;;
35418;SDS011;21525;41.240;16.500;2022-09-30T05:19:56;7.75;;;2.85;;
35418;SDS011;21525;41.240;16.500;2022-09-30T05:22:22;12.02;;;2.72;;
35418;SDS011;21525;41.240;16.500;2022-09-30T05:24:50;9.15;;;2.67;;
35418;SDS011;21525;41.240;16.500;2022-09-30T05:27:17;10.40;;;2.67;;
35418;SDS011;21525;41.240;16.500;2022-09-30T05:29:44;14.02;;;3.45;;
35418;SDS011;21525;41.240;16.500;2022-09-30T05:32:10;15.73;;;3.20;;
35418;SDS011;21525;41.240;16.500;2022-09-30T05:34:36;18.08;;;2.85;;
35418;SDS011;21525;41.240;16.500;2022-09-30T05:37:03;8.18;;;2.72;;
35418;SDS011;21525;41.240;16.500;2022-09-30T05:39:30;13.40;;;3.03;;
35418;SDS011;21525;41.240;16.500;2022-09-30T05:41:56;11.27;;;2.80;;
35418;SDS011;21525;41.240;16.500;2022-09-30T05:44:23;14.10;;;3.00;;
35418;SDS011;21525;41.240;16.500;2022-09-30T05:46:49;15.23;;;3.25;;
35418;SDS011;21525;41.240;16.500;2022-09-30T05:49:15;13.27;;;3.10;;
35418;SDS011;21525;41.240;16.500;2022-09-30T05:51:41;10.90;;;2.95;;
35418;SDS011;21525;41.240;16.500;2022-09-30T05:54:08;10.55;;;3.00;;
35418;SDS011;21525;41.240;16.500;2022-09-30T05:56:35;9.18;;;3.28;;
35418;SDS011;21525;41.240;16.500;2022-09-30T05:59:05;13.77;;;3.83;;
35418;SDS011;21525;41.240;16.500;2022-09-30T06:01:32;11.77;;;4.18;;
35418;SDS011;21525;41.240;16.500;2022-09-30T06:03:58;13.20;;;3.38;;
35418;SDS011;21525;41.240;16.500;2022-09-30T06:06:24;10.45;;;3.13;;
35418;SDS011;21525;41.240;16.500;2022-09-30T06:08:50;8.82;;;2.95;;
35418;SDS011;21525;41.240;16.500;2022-09-30T06:11:18;11.63;;;3.10;;
35418;SDS011;21525;41.240;16.500;2022-09-30T06:13:46;9.02;;;3.40;;
35418;SDS011;21525;41.240;16.500;2022-09-30T06:18:41;9.55;;;2.60;;
35418;SDS011;21525;41.240;16.500;2022-09-30T06:21:07;8.05;;;3.25;;
35418;SDS011;21525;41.240;16.500;2022-09-30T06:23:36;10.90;;;4.35;;
35418;SDS011;21525;41.240;16.500;2022-09-30T06:26:03;13.85;;;5.38;;
35418;SDS011;21525;41.240;16.500;2022-09-30T06:28:31;12.38;;;5.72;;
35418;SDS011;21525;41.240;16.500;2022-09-30T06:31:00;12.73;;;6.85;;
35418;SDS011;21525;41.240;16.500;2022-09-30T06:33:27;10.35;;;7.00;;
35418;SDS011;21525;41.240;16.500;2022-09-30T06:35:53;14.02;;;7.32;;
35418;SDS011;21525;41.240;16.500;2022-09-30T06:38:19;13.77;;;6.93;;
35418;SDS011;21525;41.240;16.500;2022-09-30T06:40:47;12.20;;;5.97;;
35418;SDS011;21525;41.240;16.500;2022-09-30T06:43:15;12.90;;;6.47;;
35418;SDS011;21525;41.240;16.500;2022-09-30T06:45:43;17.97;;;5.70;;
35418;SDS011;21525;41.240;16.500;2022-09-30T06:48:10;12.55;;;5.40;;
35418;SDS011;21525;41.240;16.500;2022-09-30T06:50:37;9.27;;;4.50;;
35418;SDS011;21525;41.240;16.500;2022-09-30T06:53:05;31.30;;;6.28;;
35418;SDS011;21525;41.240;16.500;2022-09-30T06:55:33;11.10;;;3.47;;
35418;SDS011;21525;41.240;16.500;2022-09-30T06:58:03;8.30;;;3.28;;
35418;SDS011;21525;41.240;16.500;2022-09-30T07:00:32;7.70;;;3.08;;
35418;SDS011;21525;41.240;16.500;2022-09-30T07:02:58;7.45;;;3.20;;
35418;SDS011;21525;41.240;16.500;2022-09-30T07:05:24;7.22;;;2.63;;
35418;SDS011;21525;41.240;16.500;2022-09-30T07:07:51;5.13;;;2.72;;
35418;SDS011;21525;41.240;16.500;2022-09-30T07:10:18;8.65;;;2.90;;
35418;SDS011;21525;41.240;16.500;2022-09-30T07:12:47;8.32;;;2.72;;
35418;SDS011;21525;41.240;16.500;2022-09-30T07:15:17;9.00;;;2.78;;
35418;SDS011;21525;41.240;16.500;2022-09-30T07:17:51;5.20;;;2.50;;
35418;SDS011;21525;41.240;16.500;2022-09-30T07:20:18;7.18;;;2.90;;
35418;SDS011;21525;41.240;16.500;2022-09-30T07:22:43;7.18;;;2.78;;
35418;SDS011;21525;41.240;16.500;2022-09-30T07:25:10;11.05;;;3.35;;
35418;SDS011;21525;41.240;16.500;2022-09-30T07:27:36;10.80;;;3.72;;
35418;SDS011;21525;41.240;16.500;2022-09-30T07:30:02;15.82;;;4.30;;
35418;SDS011;21525;41.240;16.500;2022-09-30T07:32:30;9.07;;;3.40;;
35418;SDS011;21525;41.240;16.500;2022-09-30T07:34:55;9.35;;;3.55;;
35418;SDS011;21525;41.240;16.500;2022-09-30T07:37:22;9.80;;;3.47;;
35418;SDS011;21525;41.240;16.500;2022-09-30T07:39:49;8.80;;;3.10;;
35418;SDS011;21525;41.240;16.500;2022-09-30T07:42:16;8.73;;;2.75;;
35418;SDS011;21525;41.240;16.500;2022-09-30T07:44:47;8.63;;;2.83;;
35418;SDS011;21525;41.240;16.500;2022-09-30T07:47:16;6.20;;;2.88;;
35418;SDS011;21525;41.240;16.500;2022-09-30T07:49:42;11.80;;;3.30;;
35418;SDS011;21525;41.240;16.500;2022-09-30T07:52:09;7.10;;;2.83;;
35418;SDS011;21525;41.240;16.500;2022-09-30T07:54:37;7.93;;;2.90;;
35418;SDS011;21525;41.240;16.500;2022-09-30T07:57:03;10.45;;;2.88;;
35418;SDS011;21525;41.240;16.500;2022-09-30T07:59:31;5.57;;;2.08;;
35418;SDS011;21525;41.240;16.500;2022-09-30T08:01:59;8.55;;;2.95;;
35418;SDS011;21525;41.240;16.500;2022-09-30T08:04:25;11.77;;;3.13;;
35418;SDS011;21525;41.240;16.500;2022-09-30T08:06:54;10.73;;;2.50;;
35418;SDS011;21525;41.240;16.500;2022-09-30T08:09:24;9.30;;;2.58;;
35418;SDS011;21525;41.240;16.500;2022-09-30T08:11:51;12.85;;;2.47;;
35418;SDS011;21525;41.240;16.500;2022-09-30T08:14:21;8.02;;;2.80;;
35418;SDS011;21525;41.240;16.500;2022-09-30T08:16:49;13.85;;;2.80;;
35418;SDS011;21525;41.240;16.500;2022-09-30T08:19:19;7.80;;;2.83;;
35418;SDS011;21525;41.240;16.500;2022-09-30T08:21:47;7.60;;;2.60;;
35418;SDS011;21525;41.240;16.500;2022-09-30T08:24:14;12.18;;;2.42;;
35418;SDS011;21525;41.240;16.500;2022-09-30T08:26:40;7.50;;;2.72;;
35418;SDS011;21525;41.240;16.500;2022-09-30T08:29:06;54.17;;;6.45;;
35418;SDS011;21525;41.240;16.500;2022-09-30T08:31:35;12.38;;;3.25;;
35418;SDS011;21525;41.240;16.500;2022-09-30T08:34:01;8.18;;;2.78;;
35418;SDS011;21525;41.240;16.500;2022-09-30T08:36:28;9.52;;;2.65;;
35418;SDS011;21525;41.240;16.500;2022-09-30T08:38:54;9.13;;;2.10;;
35418;SDS011;21525;41.240;16.500;2022-09-30T08:44:15;9.68;;;2.70;;
35418;SDS011;21525;41.240;16.500;2022-09-30T08:51:59;10.52;;;2.90;;
35418;SDS011;21525;41.240;16.500;2022-09-30T08:54:29;10.90;;;3.13;;
35418;SDS011;21525;41.240;16.500;2022-09-30T08:56:58;9.73;;;2.90;;
35418;SDS011;21525;41.240;16.500;2022-09-30T08:59:28;13.23;;;3.05;;
35418;SDS011;21525;41.240;16.500;2022-09-30T09:04:44;7.25;;;2.75;;
35418;SDS011;21525;41.240;16.500;2022-09-30T09:20:24;15.38;;;3.20;;
35418;SDS011;21525;41.240;16.500;2022-09-30T09:22:56;7.05;;;2.63;;
35418;SDS011;21525;41.240;16.500;2022-09-30T09:25:24;9.30;;;2.53;;
35418;SDS011;21525;41.240;16.500;2022-09-30T09:27:59;8.80;;;3.08;;
35418;SDS011;21525;41.240;16.500;2022-09-30T09:30:39;9.23;;;2.42;;
35418;SDS011;21525;41.240;16.500;2022-09-30T09:33:20;9.48;;;3.28;;
35418;SDS011;21525;41.240;16.500;2022-09-30T09:35:53;9.27;;;2.53;;
35418;SDS011;21525;41.240;16.500;2022-09-30T09:38:28;6.72;;;2.47;;
35418;SDS011;21525;41.240;16.500;2022-09-30T09:41:06;12.88;;;5.80;;
35418;SDS011;21525;41.240;16.500;2022-09-30T09:46:40;8.55;;;3.30;;
35418;SDS011;21525;41.240;16.500;2022-09-30T09:54:46;5.95;;;1.88;;
35418;SDS011;21525;41.240;16.500;2022-09-30T09:57:22;6.53;;;2.42;;
35418;SDS011;21525;41.240;16.500;2022-09-30T10:03:09;5.07;;;2.83;;
35418;SDS011;21525;41.240;16.500;2022-09-30T10:05:43;5.95;;;2.10;;
35418;SDS011;21525;41.240;16.500;2022-09-30T10:08:19;6.13;;;2.05;;
35418;SDS011;21525;41.240;16.500;2022-09-30T10:10:47;7.20;;;2.30;;
35418;SDS011;21525;41.240;16.500;2022-09-30T10:13:21;5.43;;;2.38;;
35418;SDS011;21525;41.240;16.500;2022-09-30T10:15:52;7.10;;;2.85;;
35418;SDS011;21525;41.240;16.500;2022-09-30T10:18:22;11.32;;;3.15;;
35418;SDS011;21525;41.240;16.500;2022-09-30T10:20:53;7.35;;;2.42;;
35418;SDS011;21525;41.240;16.500;2022-09-30T10:23:26;6.18;;;2.20;;
35418;SDS011;21525;41.240;16.500;2022-09-30T10:31:29;10.23;;;2.33;;
35418;SDS011;21525;41.240;16.500;2022-09-30T10:36:58;11.02;;;2.35;;
35418;SDS011;21525;41.240;16.500;2022-09-30T10:39:33;5.60;;;1.90;;
35418;SDS011;21525;41.240;16.500;2022-09-30T10:42:02;5.95;;;2.40;;
35418;SDS011;21525;41.240;16.500;2022-09-30T10:44:31;5.07;;;2.20;;
35418;SDS011;21525;41.240;16.500;2022-09-30T10:47:07;3.33;;;1.38;;
35418;SDS011;21525;41.240;16.500;2022-09-30T10:52:17;6.72;;;1.70;;
35418;SDS011;21525;41.240;16.500;2022-09-30T10:54:50;7.78;;;2.53;;
35418;SDS011;21525;41.240;16.500;2022-09-30T11:07:53;6.28;;;2.13;;
35418;SDS011;21525;41.240;16.500;2022-09-30T11:24:43;6.75;;;2.00;;
35418;SDS011;21525;41.240;16.500;2022-09-30T11:27:11;8.70;;;2.42;;
35418;SDS011;21525;41.240;16.500;2022-09-30T11:35:25;12.48;;;3.47;;
35418;SDS011;21525;41.240;16.500;2022-09-30T11:49:20;11.90;;;3.10;;
35418;SDS011;21525;41.240;16.500;2022-09-30T11:58:03;6.03;;;2.80;;
35418;SDS011;21525;41.240;16.500;2022-09-30T12:00:33;7.68;;;3.67;;
35418;SDS011;21525;41.240;16.500;2022-09-30T12:03:04;9.02;;;3.00;;
35418;SDS011;21525;41.240;16.500;2022-09-30T12:05:38;11.30;;;3.20;;
35418;SDS011;21525;41.240;16.500;2022-09-30T12:08:23;9.57;;;3.28;;
35418;SDS011;21525;41.240;16.500;2022-09-30T12:10:56;10.68;;;3.67;;
35418;SDS011;21525;41.240;16.500;2022-09-30T12:13:31;6.80;;;2.95;;
35418;SDS011;21525;41.240;16.500;2022-09-30T12:16:01;7.70;;;3.47;;
35418;SDS011;21525;41.240;16.500;2022-09-30T12:18:32;10.95;;;3.28;;
35418;SDS011;21525;41.240;16.500;2022-09-30T12:21:18;8.00;;;3.30;;
35418;SDS011;21525;41.240;16.500;2022-09-30T12:23:52;7.20;;;3.38;;
35418;SDS011;21525;41.240;16.500;2022-09-30T12:26:22;8.52;;;3.38;;
35418;SDS011;21525;41.240;16.500;2022-09-30T12:28:50;10.85;;;3.30;;
35418;SDS011;21525;41.240;16.500;2022-09-30T12:32:02;11.23;;;3.38;;
35418;SDS011;21525;41.240;16.500;2022-09-30T12:37:53;12.00;;;3.58;;
35418;SDS011;21525;41.240;16.500;2022-09-30T12:48:55;9.73;;;3.90;;
35418;SDS011;21525;41.240;16.500;2022-09-30T12:51:31;9.93;;;3.75;;
35418;SDS011;21525;41.240;16.500;2022-09-30T12:56:53;11.95;;;3.97;;
35418;SDS011;21525;41.240;16.500;2022-09-30T12:59:26;8.10;;;2.90;;
35418;SDS011;21525;41.240;16.500;2022-09-30T13:01:55;6.30;;;2.10;;
35418;SDS011;21525;41.240;16.500;2022-09-30T13:09:34;4.65;;;2.20;;
35418;SDS011;21525;41.240;16.500;2022-09-30T13:32:38;4.63;;;1.90;;
35418;SDS011;21525;41.240;16.500;2022-09-30T13:40:42;5.28;;;1.52;;
35418;SDS011;21525;41.240;16.500;2022-09-30T13:43:15;4.10;;;1.80;;
35418;SDS011;21525;41.240;16.500;2022-09-30T13:45:47;5.28;;;1.70;;
35418;SDS011;21525;41.240;16.500;2022-09-30T13:48:27;4.38;;;2.00;;
35418;SDS011;21525;41.240;16.500;2022-09-30T13:50:57;2.53;;;1.45;;
35418;SDS011;21525;41.240;16.500;2022-09-30T13:53:47;6.25;;;1.98;;
35418;SDS011;21525;41.240;16.500;2022-09-30T14:19:31;4.15;;;1.65;;
35418;SDS011;21525;41.240;16.500;2022-09-30T14:21:56;9.02;;;1.63;;
35418;SDS011;21525;41.240;16.500;2022-09-30T14:24:33;4.20;;;1.88;;
35418;SDS011;21525;41.240;16.500;2022-09-30T14:32:19;5.25;;;2.03;;
35418;SDS011;21525;41.240;16.500;2022-09-30T14:34:51;8.43;;;1.80;;
35418;SDS011;21525;41.240;16.500;2022-09-30T14:37:20;6.03;;;1.90;;
35418;SDS011;21525;41.240;16.500;2022-09-30T14:39:53;5.40;;;1.55;;
35418;SDS011;21525;41.240;16.500;2022-09-30T14:42:28;4.65;;;1.50;;
35418;SDS011;21525;41.240;16.500;2022-09-30T14:44:57;4.82;;;1.67;;
35418;SDS011;21525;41.240;16.500;2022-09-30T14:47:30;5.28;;;2.05;;
35418;SDS011;21525;41.240;16.500;2022-09-30T14:50:10;5.53;;;1.50;;
35418;SDS011;21525;41.240;16.500;2022-09-30T14:52:45;9.60;;;1.92;;
35418;SDS011;21525;41.240;16.500;2022-09-30T14:55:20;7.30;;;1.65;;
35418;SDS011;21525;41.240;16.500;2022-09-30T14:57:53;4.65;;;1.65;;
35418;SDS011;21525;41.240;16.500;2022-09-30T15:00:37;6.57;;;1.80;;
35418;SDS011;21525;41.240;16.500;2022-09-30T15:03:08;8.05;;;2.28;;
35418;SDS011;21525;41.240;16.500;2022-09-30T15:05:37;5.88;;;1.63;;
35418;SDS011;21525;41.240;16.500;2022-09-30T15:08:09;6.50;;;2.17;;
35418;SDS011;21525;41.240;16.500;2022-09-30T15:10:36;6.53;;;2.42;;
35418;SDS011;21525;41.240;16.500;2022-09-30T15:13:05;8.98;;;2.13;;
35418;SDS011;21525;41.240;16.500;2022-09-30T15:15:35;7.70;;;2.50;;
35418;SDS011;21525;41.240;16.500;2022-09-30T15:20:54;8.75;;;2.03;;
35418;SDS011;21525;41.240;16.500;2022-09-30T15:23:24;9.15;;;2.42;;
35418;SDS011;21525;41.240;16.500;2022-09-30T15:25:54;6.63;;;1.65;;
35418;SDS011;21525;41.240;16.500;2022-09-30T15:28:22;9.93;;;2.08;;
35418;SDS011;21525;41.240;16.500;2022-09-30T15:30:49;7.55;;;1.60;;
35418;SDS011;21525;41.240;16.500;2022-09-30T15:33:20;7.50;;;2.22;;
35418;SDS011;21525;41.240;16.500;2022-09-30T15:35:49;5.45;;;2.30;;
35418;SDS011;21525;41.240;16.500;2022-09-30T15:38:24;6.43;;;1.60;;
35418;SDS011;21525;41.240;16.500;2022-09-30T15:41:11;8.82;;;2.38;;
35418;SDS011;21525;41.240;16.500;2022-09-30T15:46:16;11.00;;;3.60;;
35418;SDS011;21525;41.240;16.500;2022-09-30T15:49:00;8.68;;;2.85;;
35418;SDS011;21525;41.240;16.500;2022-09-30T15:54:00;6.28;;;1.98;;
35418;SDS011;21525;41.240;16.500;2022-09-30T15:56:48;9.48;;;2.47;;
35418;SDS011;21525;41.240;16.500;2022-09-30T15:59:14;6.15;;;2.30;;
35418;SDS011;21525;41.240;16.500;2022-09-30T16:01:50;6.78;;;2.20;;
35418;SDS011;21525;41.240;16.500;2022-09-30T16:04:24;12.70;;;2.95;;
35418;SDS011;21525;41.240;16.500;2022-09-30T16:06:57;10.45;;;2.30;;
35418;SDS011;21525;41.240;16.500;2022-09-30T16:09:33;9.65;;;2.85;;
35418;SDS011;21525;41.240;16.500;2022-09-30T16:14:29;8.48;;;2.00;;
35418;SDS011;21525;41.240;16.500;2022-09-30T16:17:06;8.88;;;2.35;;
35418;SDS011;21525;41.240;16.500;2022-09-30T16:27:36;11.05;;;3.22;;
35418;SDS011;21525;41.240;16.500;2022-09-30T16:30:04;10.95;;;3.53;;
35418;SDS011;21525;41.240;16.500;2022-09-30T16:32:34;9.30;;;3.50;;
35418;SDS011;21525;41.240;16.500;2022-09-30T16:35:03;12.85;;;4.18;;
35418;SDS011;21525;41.240;16.500;2022-09-30T16:37:31;14.47;;;3.63;;
35418;SDS011;21525;41.240;16.500;2022-09-30T16:39:58;11.48;;;3.40;;
35418;SDS011;21525;41.240;16.500;2022-09-30T16:42:35;13.65;;;3.15;;
35418;SDS011;21525;41.240;16.500;2022-09-30T16:45:01;11.30;;;3.22;;
35418;SDS011;21525;41.240;16.500;2022-09-30T16:47:28;16.00;;;2.97;;
35418;SDS011;21525;41.240;16.500;2022-09-30T16:49:55;10.55;;;3.15;;
35418;SDS011;21525;41.240;16.500;2022-09-30T16:52:21;9.95;;;2.80;;
35418;SDS011;21525;41.240;16.500;2022-09-30T16:54:47;10.60;;;2.60;;
35418;SDS011;21525;41.240;16.500;2022-09-30T16:57:14;7.38;;;2.50;;
35418;SDS011;21525;41.240;16.500;2022-09-30T16:59:40;8.15;;;2.75;;
35418;SDS011;21525;41.240;16.500;2022-09-30T17:02:09;10.13;;;2.83;;
35418;SDS011;21525;41.240;16.500;2022-09-30T17:04:38;8.80;;;2.58;;
35418;SDS011;21525;41.240;16.500;2022-09-30T17:07:04;9.27;;;2.65;;
35418;SDS011;21525;41.240;16.500;2022-09-30T17:09:31;13.07;;;3.50;;
35418;SDS011;21525;41.240;16.500;2022-09-30T17:11:57;13.40;;;3.22;;
35418;SDS011;21525;41.240;16.500;2022-09-30T17:14:25;13.50;;;3.67;;
35418;SDS011;21525;41.240;16.500;2022-09-30T17:16:53;10.68;;;2.88;;
35418;SDS011;21525;41.240;16.500;2022-09-30T17:19:19;14.35;;;2.75;;
35418;SDS011;21525;41.240;16.500;2022-09-30T17:21:45;9.18;;;2.92;;
35418;SDS011;21525;41.240;16.500;2022-09-30T17:24:12;13.38;;;2.90;;
35418;SDS011;21525;41.240;16.500;2022-09-30T17:26:38;10.40;;;3.30;;
35418;SDS011;21525;41.240;16.500;2022-09-30T17:29:04;13.57;;;3.20;;
35418;SDS011;21525;41.240;16.500;2022-09-30T17:31:31;10.85;;;2.97;;
35418;SDS011;21525;41.240;16.500;2022-09-30T17:33:57;10.32;;;2.80;;
35418;SDS011;21525;41.240;16.500;2022-09-30T17:36:23;8.90;;;2.67;;
35418;SDS011;21525;41.240;16.500;2022-09-30T17:38:51;8.13;;;2.65;;
35418;SDS011;21525;41.240;16.500;2022-09-30T17:41:19;13.65;;;3.75;;
35418;SDS011;21525;41.240;16.500;2022-09-30T17:44:03;10.50;;;3.03;;
35418;SDS011;21525;41.240;16.500;2022-09-30T17:46:38;8.70;;;3.28;;
35418;SDS011;21525;41.240;16.500;2022-09-30T17:49:05;11.18;;;2.67;;
35418;SDS011;21525;41.240;16.500;2022-09-30T17:51:33;12.63;;;3.22;;
35418;SDS011;21525;41.240;16.500;2022-09-30T17:54:03;9.70;;;3.47;;
35418;SDS011;21525;41.240;16.500;2022-09-30T17:56:31;12.32;;;2.92;;
35418;SDS011;21525;41.240;16.500;2022-09-30T17:58:58;15.80;;;2.97;;
35418;SDS011;21525;41.240;16.500;2022-09-30T18:01:26;11.93;;;3.30;;
35418;SDS011;21525;41.240;16.500;2022-09-30T18:03:58;12.68;;;3.17;;
35418;SDS011;21525;41.240;16.500;2022-09-30T18:06:25;16.02;;;3.58;;
35418;SDS011;21525;41.240;16.500;2022-09-30T18:08:53;15.77;;;3.20;;
35418;SDS011;21525;41.240;16.500;2022-09-30T18:11:21;15.38;;;3.78;;
35418;SDS011;21525;41.240;16.500;2022-09-30T18:13:55;10.32;;;3.15;;
35418;SDS011;21525;41.240;16.500;2022-09-30T18:16:26;10.65;;;3.13;;
35418;SDS011;21525;41.240;16.500;2022-09-30T18:18:59;10.35;;;2.67;;
35418;SDS011;21525;41.240;16.500;2022-09-30T18:21:28;11.32;;;3.13;;
35418;SDS011;21525;41.240;16.500;2022-09-30T18:23:55;12.52;;;3.38;;
35418;SDS011;21525;41.240;16.500;2022-09-30T18:26:30;11.93;;;2.97;;
35418;SDS011;21525;41.240;16.500;2022-09-30T18:28:57;12.93;;;3.30;;
35418;SDS011;21525;41.240;16.500;2022-09-30T18:31:24;12.45;;;3.08;;
35418;SDS011;21525;41.240;16.500;2022-09-30T18:33:54;10.60;;;3.75;;
35418;SDS011;21525;41.240;16.500;2022-09-30T18:36:21;11.05;;;2.92;;
35418;SDS011;21525;41.240;16.500;2022-09-30T18:41:15;10.90;;;3.47;;
35418;SDS011;21525;41.240;16.500;2022-09-30T18:43:42;15.05;;;4.18;;
35418;SDS011;21525;41.240;16.500;2022-09-30T18:46:10;12.05;;;3.22;;
35418;SDS011;21525;41.240;16.500;2022-09-30T18:48:40;10.07;;;2.90;;
35418;SDS011;21525;41.240;16.500;2022-09-30T18:51:06;13.82;;;3.60;;
35418;SDS011;21525;41.240;16.500;2022-09-30T18:53:33;9.90;;;3.22;;
35418;SDS011;21525;41.240;16.500;2022-09-30T18:55:59;11.48;;;3.17;;
35418;SDS011;21525;41.240;16.500;2022-09-30T18:58:26;11.02;;;2.97;;
35418;SDS011;21525;41.240;16.500;2022-09-30T19:00:55;14.68;;;3.00;;
35418;SDS011;21525;41.240;16.500;2022-09-30T19:03:22;13.40;;;3.15;;
35418;SDS011;21525;41.240;16.500;2022-09-30T19:05:52;13.60;;;3.20;;
35418;SDS011;21525;41.240;16.500;2022-09-30T19:08:19;11.07;;;3.15;;
35418;SDS011;21525;41.240;16.500;2022-09-30T19:10:45;12.90;;;3.40;;
35418;SDS011;21525;41.240;16.500;2022-09-30T19:13:12;12.25;;;3.47;;
35418;SDS011;21525;41.240;16.500;2022-09-30T19:15:38;10.50;;;3.55;;
35418;SDS011;21525;41.240;16.500;2022-09-30T19:18:04;14.88;;;3.97;;